Time;durP1;ratioP1;P1;durP2;ratioP2;P2;SDS_P1;SDS_P2;PMS_P1;PMS_P2;Temp;Humidity;BMP_temperature;BMP_pressure;BME280_temperature;BME280_humidity;BME280_pressure;Samples;Min_cycle;Max_cycle;Signal;HPM_P1;HPM_P2
2023/07/14 00:00:14;;;;;;;14.85;11.30;;;;;;;;;;5002379;28;20209;-69
2023/07/14 00:02:39;;;;;;;17.00;11.10;;;;;;;;;;5017660;28;20278;-68
2023/07/14 00:05:05;;;;;;;16.65;12.43;;;;;;;;;;5002328;28;20353;-69
2023/07/14 00:07:30;;;;;;;18.15;11.85;;;;;;;;;;4996920;28;20535;-69
2023/07/14 00:09:56;;;;;;;16.13;12.38;;;;;;;;;;5009358;28;20228;-68
2023/07/14 00:12:21;;;;;;;19.27;13.57;;;;;;;;;;5012210;28;20265;-69
2023/07/14 00:14:47;;;;;;;16.23;12.95;;;;;;;;;;5007139;28;20214;-68
2023/07/14 00:17:14;;;;;;;17.60;12.65;;;;;;;;;;5001185;28;20219;-69
2023/07/14 00:19:40;;;;;;;15.60;12.00;;;;;;;;;;5004572;28;20293;-69
2023/07/14 00:22:14;;;;;;;18.42;12.90;;;;;;;;;;5007265;28;20579;-70
2023/07/14 00:24:42;;;;;;;14.82;12.77;;;;;;;;;;5014666;28;20206;-69
2023/07/14 00:27:17;;;;;;;19.08;13.98;;;;;;;;;;5008478;28;20238;-69
2023/07/14 00:29:45;;;;;;;21.15;12.60;;;;;;;;;;5005822;28;20285;-69
2023/07/14 00:32:18;;;;;;;15.63;12.32;;;;;;;;;;5002494;28;20270;-69
2023/07/14 00:34:45;;;;;;;19.17;12.93;;;;;;;;;;4986220;28;20187;-68
2023/07/14 00:37:11;;;;;;;19.13;12.93;;;;;;;;;;5009743;28;20529;-68
2023/07/14 00:39:36;;;;;;;17.38;13.00;;;;;;;;;;5002714;28;20623;-68
2023/07/14 00:42:03;;;;;;;19.90;12.68;;;;;;;;;;4994614;28;20197;-68
2023/07/14 00:44:30;;;;;;;18.67;12.68;;;;;;;;;;5004188;28;20222;-69
2023/07/14 00:46:55;;;;;;;18.02;13.10;;;;;;;;;;5005564;28;20203;-68
2023/07/14 00:49:40;;;;;;;17.90;15.45;;;;;;;;;;5010129;28;20253;-69
2023/07/14 00:52:29;;;;;;;20.55;14.48;;;;;;;;;;5004826;28;20187;-70
2023/07/14 00:54:54;;;;;;;24.67;13.75;;;;;;;;;;5000112;28;20209;-69
2023/07/14 00:57:23;;;;;;;23.48;14.00;;;;;;;;;;5009574;28;20190;-69
2023/07/14 00:59:53;;;;;;;21.17;13.18;;;;;;;;;;5007256;28;20192;-69
2023/07/14 01:02:23;;;;;;;19.70;13.43;;;;;;;;;;5007081;28;20290;-69
2023/07/14 01:04:58;;;;;;;23.77;13.40;;;;;;;;;;5007521;28;20677;-69
2023/07/14 01:07:31;;;;;;;16.27;13.85;;;;;;;;;;5006865;28;20606;-69
2023/07/14 01:09:58;;;;;;;21.92;15.93;;;;;;;;;;5005301;28;20187;-70
2023/07/14 01:12:25;;;;;;;19.42;15.25;;;;;;;;;;5009966;28;20195;-68
2023/07/14 01:14:54;;;;;;;20.83;16.30;;;;;;;;;;5003511;28;20190;-69
2023/07/14 01:17:21;;;;;;;21.17;16.45;;;;;;;;;;5008654;28;20217;-68
2023/07/14 01:20:00;;;;;;;22.15;17.65;;;;;;;;;;4994346;28;20238;-68
2023/07/14 01:22:47;;;;;;;22.75;16.95;;;;;;;;;;5004785;28;20210;-69
2023/07/14 01:25:51;;;;;;;20.20;16.25;;;;;;;;;;5002016;28;20213;-69
2023/07/14 01:28:19;;;;;;;19.63;16.52;;;;;;;;;;5007517;28;20212;-70
2023/07/14 01:30:45;;;;;;;21.23;15.93;;;;;;;;;;5009243;28;20267;-69
2023/07/14 01:33:17;;;;;;;20.58;16.50;;;;;;;;;;4994645;28;20334;-68
2023/07/14 01:35:49;;;;;;;22.67;17.73;;;;;;;;;;5000704;28;20170;-68
2023/07/14 01:38:15;;;;;;;20.52;16.17;;;;;;;;;;5009019;28;20375;-69
2023/07/14 01:40:41;;;;;;;23.80;16.30;;;;;;;;;;5004385;28;20664;-68
2023/07/14 01:43:09;;;;;;;21.17;16.85;;;;;;;;;;5007003;28;20261;-68
2023/07/14 01:45:48;;;;;;;22.60;16.83;;;;;;;;;;5003133;28;20224;-69
2023/07/14 01:48:18;;;;;;;23.05;17.08;;;;;;;;;;5004913;28;20188;-69
2023/07/14 01:50:56;;;;;;;27.33;18.15;;;;;;;;;;4999511;28;20653;-69
2023/07/14 01:53:33;;;;;;;24.00;16.92;;;;;;;;;;5007219;28;20186;-69
2023/07/14 01:56:04;;;;;;;28.20;19.45;;;;;;;;;;4999700;28;20292;-69
2023/07/14 01:58:35;;;;;;;28.60;21.08;;;;;;;;;;5008630;28;20284;-69
2023/07/14 02:01:02;;;;;;;27.05;20.98;;;;;;;;;;5005797;28;20182;-69
2023/07/14 02:03:34;;;;;;;27.50;21.65;;;;;;;;;;5003084;28;20194;-70
2023/07/14 02:06:00;;;;;;;33.42;21.05;;;;;;;;;;5001297;28;20211;-70
2023/07/14 02:08:26;;;;;;;30.58;21.02;;;;;;;;;;5002208;28;20666;-70
2023/07/14 02:10:52;;;;;;;30.30;21.65;;;;;;;;;;4989755;28;20610;-69
2023/07/14 02:13:18;;;;;;;28.25;21.35;;;;;;;;;;5010324;28;20313;-69
2023/07/14 02:15:45;;;;;;;26.88;20.75;;;;;;;;;;5023369;28;20944;-69
2023/07/14 02:18:15;;;;;;;29.67;21.92;;;;;;;;;;5022632;28;20240;-70
2023/07/14 02:20:42;;;;;;;26.48;20.58;;;;;;;;;;5014607;28;20186;-69
2023/07/14 02:23:12;;;;;;;29.38;21.67;;;;;;;;;;5000583;28;20269;-69
2023/07/14 02:25:47;;;;;;;25.08;21.10;;;;;;;;;;5020103;28;20233;-69
2023/07/14 02:28:14;;;;;;;28.60;19.08;;;;;;;;;;5002951;28;20191;-69
2023/07/14 02:30:45;;;;;;;23.35;18.63;;;;;;;;;;5020032;28;20199;-68
2023/07/14 02:33:25;;;;;;;26.40;19.38;;;;;;;;;;5013357;28;20273;-68
2023/07/14 02:36:02;;;;;;;23.00;18.45;;;;;;;;;;5011289;28;20203;-70
2023/07/14 02:38:28;;;;;;;21.63;17.27;;;;;;;;;;5010729;28;20189;-69
2023/07/14 02:41:00;;;;;;;22.50;17.88;;;;;;;;;;5022403;28;20583;-69
2023/07/14 02:43:26;;;;;;;23.30;17.83;;;;;;;;;;5011274;28;20593;-70
2023/07/14 02:45:58;;;;;;;28.35;19.50;;;;;;;;;;5006666;28;20245;-70
2023/07/14 02:48:27;;;;;;;25.00;17.95;;;;;;;;;;5001475;28;20634;-69
2023/07/14 02:50:52;;;;;;;20.23;16.33;;;;;;;;;;4996237;28;20656;-70
2023/07/14 02:53:17;;;;;;;22.15;18.05;;;;;;;;;;5013335;28;20264;-70
2023/07/14 02:55:44;;;;;;;21.90;18.23;;;;;;;;;;5002006;28;20186;-70
2023/07/14 02:58:09;;;;;;;22.00;17.52;;;;;;;;;;5010971;28;20205;-70
2023/07/14 03:00:35;;;;;;;23.80;17.80;;;;;;;;;;5009026;28;20194;-70
2023/07/14 03:03:00;;;;;;;24.70;18.42;;;;;;;;;;5003398;28;20180;-69
2023/07/14 03:05:26;;;;;;;24.45;17.08;;;;;;;;;;5002924;28;20202;-69
2023/07/14 03:07:52;;;;;;;23.30;18.35;;;;;;;;;;5013236;28;20213;-70
2023/07/14 03:10:17;;;;;;;26.55;18.23;;;;;;;;;;5003140;28;20206;-69
2023/07/14 03:12:42;;;;;;;22.70;18.50;;;;;;;;;;5008156;28;20648;-69
2023/07/14 03:15:08;;;;;;;26.40;18.52;;;;;;;;;;5006905;28;20182;-69
2023/07/14 03:17:33;;;;;;;30.08;19.08;;;;;;;;;;5013473;28;20217;-69
2023/07/14 03:19:59;;;;;;;25.50;19.05;;;;;;;;;;5006318;28;20215;-69
2023/07/14 03:22:26;;;;;;;29.88;20.42;;;;;;;;;;5012429;28;20665;-69
2023/07/14 03:24:51;;;;;;;29.25;19.60;;;;;;;;;;5012933;28;20677;-68
2023/07/14 03:27:17;;;;;;;25.33;18.88;;;;;;;;;;5010723;28;20241;-69
2023/07/14 03:29:42;;;;;;;23.38;18.15;;;;;;;;;;5012204;28;20186;-69
2023/07/14 03:32:12;;;;;;;26.52;17.77;;;;;;;;;;4990558;28;20195;-69
2023/07/14 03:34:37;;;;;;;28.02;20.02;;;;;;;;;;5010262;28;20590;-69
2023/07/14 03:37:03;;;;;;;26.38;19.73;;;;;;;;;;5009081;28;20202;-69
2023/07/14 03:39:30;;;;;;;24.77;19.30;;;;;;;;;;5011291;28;20206;-69
2023/07/14 03:41:56;;;;;;;25.75;19.48;;;;;;;;;;5003682;28;20195;-69
2023/07/14 03:44:22;;;;;;;23.75;18.60;;;;;;;;;;4997881;28;20268;-69
2023/07/14 03:46:48;;;;;;;24.45;17.98;;;;;;;;;;5013614;28;20198;-69
2023/07/14 03:49:14;;;;;;;22.20;17.50;;;;;;;;;;4996603;28;20190;-69
2023/07/14 03:51:40;;;;;;;22.70;17.60;;;;;;;;;;5006984;28;20339;-69
2023/07/14 03:54:07;;;;;;;23.30;17.95;;;;;;;;;;4996331;28;20184;-69
2023/07/14 03:56:32;;;;;;;22.52;18.48;;;;;;;;;;5004657;28;20196;-69
2023/07/14 03:58:58;;;;;;;22.10;17.05;;;;;;;;;;5009155;28;20203;-69
2023/07/14 04:01:25;;;;;;;23.05;17.77;;;;;;;;;;5009049;28;20189;-69
2023/07/14 04:03:50;;;;;;;20.08;17.42;;;;;;;;;;5005896;28;20322;-69
2023/07/14 04:06:16;;;;;;;19.77;16.20;;;;;;;;;;5005569;28;20788;-69
2023/07/14 04:08:43;;;;;;;21.50;16.73;;;;;;;;;;4993501;28;20188;-69
2023/07/14 04:11:10;;;;;;;22.75;16.98;;;;;;;;;;4997097;28;20202;-69
2023/07/14 04:13:36;;;;;;;20.98;16.25;;;;;;;;;;5007857;28;20194;-69
2023/07/14 04:16:09;;;;;;;25.10;15.98;;;;;;;;;;4995297;28;20575;-69
2023/07/14 04:18:36;;;;;;;23.92;16.23;;;;;;;;;;5011531;28;20233;-69
2023/07/14 04:21:07;;;;;;;22.33;16.38;;;;;;;;;;5011430;28;20191;-69
2023/07/14 04:23:33;;;;;;;21.75;15.95;;;;;;;;;;4989408;28;20245;-69
2023/07/14 04:25:59;;;;;;;25.52;16.23;;;;;;;;;;5008236;28;20322;-69
2023/07/14 04:28:25;;;;;;;18.92;15.20;;;;;;;;;;5011060;28;20201;-69
2023/07/14 04:30:55;;;;;;;17.63;14.40;;;;;;;;;;5000295;28;20202;-69
2023/07/14 04:33:21;;;;;;;19.90;15.13;;;;;;;;;;5007401;28;20250;-68
2023/07/14 04:35:51;;;;;;;18.40;14.60;;;;;;;;;;5007568;28;20179;-69
2023/07/14 04:38:17;;;;;;;21.63;14.73;;;;;;;;;;5006802;28;20268;-69
2023/07/14 04:40:43;;;;;;;20.95;14.55;;;;;;;;;;4987285;28;20201;-69
2023/07/14 04:43:09;;;;;;;18.38;14.00;;;;;;;;;;5010174;28;20186;-69
2023/07/14 04:45:39;;;;;;;18.08;14.13;;;;;;;;;;4999279;28;20233;-69
2023/07/14 04:48:11;;;;;;;21.08;14.43;;;;;;;;;;4987177;28;20255;-70
2023/07/14 04:50:37;;;;;;;20.13;13.15;;;;;;;;;;4999558;28;20193;-69
2023/07/14 04:53:06;;;;;;;20.80;13.60;;;;;;;;;;5008406;28;20191;-69
2023/07/14 04:55:36;;;;;;;17.38;13.30;;;;;;;;;;5018725;28;20182;-69
2023/07/14 04:58:02;;;;;;;16.35;12.82;;;;;;;;;;5004953;28;20633;-69
2023/07/14 05:00:27;;;;;;;20.05;11.75;;;;;;;;;;5012750;28;20189;-70
2023/07/14 05:02:53;;;;;;;21.05;12.45;;;;;;;;;;5010073;28;20653;-69
2023/07/14 05:05:21;;;;;;;18.13;12.15;;;;;;;;;;5007937;28;20228;-70
2023/07/14 05:07:49;;;;;;;14.18;11.27;;;;;;;;;;4994821;28;20205;-70
2023/07/14 05:10:16;;;;;;;16.52;11.70;;;;;;;;;;5009156;28;20636;-71
2023/07/14 05:12:41;;;;;;;16.65;13.25;;;;;;;;;;4989485;28;20186;-70
2023/07/14 05:15:10;;;;;;;15.73;12.13;;;;;;;;;;4992856;28;20387;-70
2023/07/14 05:17:41;;;;;;;15.20;11.50;;;;;;;;;;4991032;28;20222;-69
2023/07/14 05:20:12;;;;;;;17.60;12.95;;;;;;;;;;4993547;28;20199;-68
2023/07/14 05:22:38;;;;;;;15.65;12.55;;;;;;;;;;5003805;28;20322;-68
2023/07/14 05:25:04;;;;;;;17.35;11.40;;;;;;;;;;4978791;28;20337;-70
2023/07/14 05:27:30;;;;;;;17.33;11.52;;;;;;;;;;5009873;28;20616;-70
2023/07/14 05:29:55;;;;;;;12.80;11.43;;;;;;;;;;5005417;28;20321;-70
2023/07/14 05:32:22;;;;;;;14.07;11.25;;;;;;;;;;5009887;28;20211;-71
2023/07/14 05:34:48;;;;;;;14.38;11.95;;;;;;;;;;4994915;28;20180;-68
2023/07/14 05:37:15;;;;;;;16.13;11.23;;;;;;;;;;5007624;28;20197;-70
2023/07/14 05:39:41;;;;;;;16.35;10.77;;;;;;;;;;5014703;28;20182;-69
2023/07/14 05:42:07;;;;;;;13.25;11.10;;;;;;;;;;5011220;28;20201;-70
2023/07/14 05:44:32;;;;;;;14.82;10.50;;;;;;;;;;5009540;28;20214;-69
2023/07/14 05:46:58;;;;;;;12.85;9.40;;;;;;;;;;5012402;28;20308;-70
2023/07/14 05:49:23;;;;;;;13.25;10.25;;;;;;;;;;5004415;28;20290;-69
2023/07/14 05:51:50;;;;;;;14.82;10.05;;;;;;;;;;5005366;28;20305;-69
2023/07/14 05:54:16;;;;;;;12.88;11.55;;;;;;;;;;5014092;28;20547;-69
2023/07/14 05:56:41;;;;;;;20.98;11.70;;;;;;;;;;5015405;28;20195;-69
2023/07/14 05:59:07;;;;;;;13.85;10.32;;;;;;;;;;5001589;28;20241;-70
2023/07/14 06:01:32;;;;;;;15.32;10.95;;;;;;;;;;5011043;28;20507;-69
2023/07/14 06:03:58;;;;;;;17.17;11.25;;;;;;;;;;5001358;28;20700;-70
2023/07/14 06:06:23;;;;;;;15.07;11.20;;;;;;;;;;5008506;28;20214;-71
2023/07/14 06:08:49;;;;;;;14.15;10.95;;;;;;;;;;5008616;28;20192;-67
2023/07/14 06:11:15;;;;;;;13.02;10.88;;;;;;;;;;5011679;28;20213;-69
2023/07/14 06:13:41;;;;;;;12.48;10.63;;;;;;;;;;4999432;28;20538;-70
2023/07/14 06:16:06;;;;;;;11.45;10.25;;;;;;;;;;4998458;28;20241;-70
2023/07/14 06:18:32;;;;;;;12.65;11.15;;;;;;;;;;4997871;28;21142;-69
2023/07/14 06:20:57;;;;;;;15.70;11.60;;;;;;;;;;5010692;28;20214;-70
2023/07/14 06:23:23;;;;;;;15.95;11.48;;;;;;;;;;5008913;28;20245;-70
2023/07/14 06:25:48;;;;;;;14.35;11.77;;;;;;;;;;5009060;28;20245;-70
2023/07/14 06:28:14;;;;;;;18.33;11.48;;;;;;;;;;5008082;28;20195;-69
2023/07/14 06:30:40;;;;;;;18.00;11.80;;;;;;;;;;5008236;28;20191;-68
2023/07/14 06:33:05;;;;;;;14.60;11.13;;;;;;;;;;5000917;28;20186;-67
2023/07/14 06:35:31;;;;;;;16.30;11.40;;;;;;;;;;5019374;28;20261;-69
2023/07/14 06:37:57;;;;;;;13.63;10.73;;;;;;;;;;4993399;28;20302;-69
2023/07/14 06:40:24;;;;;;;12.45;11.15;;;;;;;;;;5008404;28;20210;-70
2023/07/14 06:42:49;;;;;;;15.77;11.35;;;;;;;;;;5004374;28;20657;-71
2023/07/14 06:45:15;;;;;;;14.48;11.05;;;;;;;;;;4997422;28;20206;-67
2023/07/14 06:47:40;;;;;;;14.85;10.77;;;;;;;;;;5007733;28;20253;-70
2023/07/14 06:50:06;;;;;;;16.13;10.68;;;;;;;;;;5006720;28;20182;-70
2023/07/14 06:52:31;;;;;;;14.18;10.65;;;;;;;;;;5013841;28;20406;-69
2023/07/14 06:54:57;;;;;;;13.90;10.85;;;;;;;;;;5003431;28;20545;-69
2023/07/14 06:57:23;;;;;;;14.82;10.88;;;;;;;;;;5007277;28;20195;-69
2023/07/14 06:59:48;;;;;;;13.88;11.45;;;;;;;;;;5000895;28;20667;-70
2023/07/14 07:02:14;;;;;;;13.45;11.27;;;;;;;;;;4999552;28;20258;-69
2023/07/14 07:04:40;;;;;;;15.10;10.27;;;;;;;;;;5000614;28;20204;-70
2023/07/14 07:07:06;;;;;;;13.27;10.98;;;;;;;;;;5011430;28;20197;-71
2023/07/14 07:09:32;;;;;;;15.23;10.15;;;;;;;;;;4993097;28;20186;-69
2023/07/14 07:11:57;;;;;;;15.30;10.98;;;;;;;;;;5008234;28;20369;-68
2023/07/14 07:14:23;;;;;;;14.80;10.18;;;;;;;;;;5012824;28;20187;-70
2023/07/14 07:16:49;;;;;;;11.77;8.40;;;;;;;;;;5001503;28;20636;-68
2023/07/14 07:19:15;;;;;;;14.52;8.55;;;;;;;;;;4991262;28;20585;-69
2023/07/14 07:21:41;;;;;;;14.40;8.73;;;;;;;;;;5010305;28;20194;-70
2023/07/14 07:24:08;;;;;;;11.55;8.15;;;;;;;;;;5009129;28;20202;-70
2023/07/14 07:26:33;;;;;;;15.10;7.65;;;;;;;;;;5006891;28;20681;-70
2023/07/14 07:28:59;;;;;;;13.38;7.25;;;;;;;;;;5006253;28;20183;-69
2023/07/14 07:31:24;;;;;;;9.88;6.43;;;;;;;;;;5006678;28;20198;-68
2023/07/14 07:33:49;;;;;;;9.15;6.72;;;;;;;;;;4660597;28;9999952;-70
2023/07/14 07:36:15;;;;;;;10.13;6.57;;;;;;;;;;5007695;28;20202;-68
2023/07/14 07:38:49;;;;;;;9.50;6.82;;;;;;;;;;5001957;28;20191;-68
2023/07/14 07:41:16;;;;;;;10.30;6.80;;;;;;;;;;5003613;28;20559;-68
2023/07/14 07:43:41;;;;;;;14.55;7.60;;;;;;;;;;5005103;28;20187;-68
2023/07/14 07:46:08;;;;;;;11.40;7.05;;;;;;;;;;4999179;28;20741;-69
2023/07/14 07:48:35;;;;;;;13.07;7.22;;;;;;;;;;4996415;28;20592;-70
2023/07/14 07:51:04;;;;;;;11.45;7.28;;;;;;;;;;4999440;28;20183;-69
2023/07/14 07:53:29;;;;;;;9.10;6.68;;;;;;;;;;4996758;28;20860;-70
2023/07/14 07:55:57;;;;;;;9.85;6.15;;;;;;;;;;5001436;28;20217;-69
2023/07/14 07:58:25;;;;;;;8.63;5.60;;;;;;;;;;5002073;28;20903;-70
2023/07/14 08:01:02;;;;;;;8.00;5.28;;;;;;;;;;5003410;28;20281;-68
2023/07/14 08:03:29;;;;;;;6.35;4.57;;;;;;;;;;5000191;28;20194;-69
2023/07/14 08:06:03;;;;;;;9.10;4.90;;;;;;;;;;5003873;28;20293;-68
2023/07/14 08:08:30;;;;;;;8.20;4.15;;;;;;;;;;5001766;28;20344;-71
2023/07/14 08:10:55;;;;;;;8.88;4.30;;;;;;;;;;4996430;28;20289;-70
2023/07/14 08:13:24;;;;;;;6.72;4.20;;;;;;;;;;4987153;28;20717;-69
2023/07/14 08:15:51;;;;;;;7.65;4.80;;;;;;;;;;5007885;28;20194;-68
2023/07/14 08:18:16;;;;;;;6.88;4.38;;;;;;;;;;5006969;28;20580;-69
2023/07/14 08:20:42;;;;;;;8.73;4.50;;;;;;;;;;4985790;28;20194;-70
2023/07/14 08:23:13;;;;;;;5.97;3.92;;;;;;;;;;5006781;28;20187;-69
2023/07/14 08:25:39;;;;;;;9.70;3.38;;;;;;;;;;5011565;28;20215;-69
2023/07/14 08:28:05;;;;;;;6.50;3.95;;;;;;;;;;4999660;28;20278;-69
2023/07/14 08:30:30;;;;;;;7.70;3.22;;;;;;;;;;5003614;28;20784;-70
2023/07/14 08:32:56;;;;;;;5.32;2.72;;;;;;;;;;4994942;28;20195;-68
2023/07/14 08:35:22;;;;;;;6.90;3.22;;;;;;;;;;5006732;28;20188;-71
2023/07/14 08:37:48;;;;;;;6.78;3.20;;;;;;;;;;5010923;28;20680;-69
2023/07/14 08:40:17;;;;;;;6.18;2.95;;;;;;;;;;4994572;28;20186;-69
2023/07/14 08:42:57;;;;;;;9.60;3.67;;;;;;;;;;4997103;28;20547;-71
2023/07/14 08:45:48;;;;;;;5.28;3.10;;;;;;;;;;5008837;28;20207;-68
2023/07/14 08:48:37;;;;;;;5.35;3.45;;;;;;;;;;4989747;28;20199;-70
2023/07/14 08:51:18;;;;;;;7.28;3.70;;;;;;;;;;5007077;28;20226;-71
2023/07/14 08:53:49;;;;;;;6.82;4.00;;;;;;;;;;5008642;28;20204;-70
2023/07/14 08:56:18;;;;;;;9.98;4.50;;;;;;;;;;4995105;28;20183;-71
2023/07/14 08:58:45;;;;;;;7.00;4.00;;;;;;;;;;5002058;28;20240;-70
2023/07/14 09:01:24;;;;;;;10.07;4.10;;;;;;;;;;5005516;28;20222;-69
2023/07/14 09:03:53;;;;;;;9.50;4.60;;;;;;;;;;5005791;28;20776;-68
2023/07/14 09:06:34;;;;;;;9.00;4.63;;;;;;;;;;5001413;28;20273;-69
2023/07/14 09:09:00;;;;;;;9.25;4.35;;;;;;;;;;4996157;28;20228;-68
2023/07/14 09:11:32;;;;;;;5.65;3.97;;;;;;;;;;4996980;28;20198;-69
2023/07/14 09:14:27;;;;;;;5.88;3.28;;;;;;;;;;5002874;28;20205;-69
2023/07/14 09:17:11;;;;;;;8.10;3.70;;;;;;;;;;4980155;28;20225;-70
2023/07/14 09:19:42;;;;;;;7.22;3.13;;;;;;;;;;5000276;28;20229;-69
2023/07/14 09:22:21;;;;;;;4.97;3.25;;;;;;;;;;5006250;28;20213;-68
2023/07/14 09:25:04;;;;;;;5.25;2.55;;;;;;;;;;5006732;28;20225;-70
2023/07/14 09:27:31;;;;;;;9.07;2.72;;;;;;;;;;5004850;28;20714;-68
2023/07/14 09:29:59;;;;;;;7.32;3.08;;;;;;;;;;5007679;28;20218;-72
2023/07/14 09:32:35;;;;;;;4.32;2.60;;;;;;;;;;5002966;28;20183;-68
2023/07/14 09:35:15;;;;;;;6.03;2.80;;;;;;;;;;4997077;28;20242;-70
2023/07/14 09:37:52;;;;;;;5.22;2.83;;;;;;;;;;5005614;28;20195;-71
2023/07/14 09:40:21;;;;;;;4.47;2.72;;;;;;;;;;5004173;28;20194;-69
2023/07/14 09:42:55;;;;;;;4.85;2.40;;;;;;;;;;5011028;28;20189;-68
2023/07/14 09:45:40;;;;;;;6.07;3.05;;;;;;;;;;4994896;28;20195;-72
2023/07/14 09:48:19;;;;;;;4.18;2.47;;;;;;;;;;4998357;28;20202;-69
2023/07/14 09:51:00;;;;;;;5.70;3.05;;;;;;;;;;4995910;28;20213;-67
2023/07/14 09:53:27;;;;;;;4.18;2.35;;;;;;;;;;4997631;28;20203;-68
2023/07/14 09:55:55;;;;;;;5.88;3.13;;;;;;;;;;5008589;28;20679;-71
2023/07/14 09:58:23;;;;;;;5.82;2.90;;;;;;;;;;4995891;28;20335;-71
2023/07/14 10:00:54;;;;;;;5.43;3.03;;;;;;;;;;5007406;28;20187;-70
2023/07/14 10:03:20;;;;;;;6.30;3.00;;;;;;;;;;5007098;28;20726;-71
2023/07/14 10:05:57;;;;;;;5.40;2.70;;;;;;;;;;4979814;28;20201;-70
2023/07/14 10:08:34;;;;;;;4.47;2.60;;;;;;;;;;4994509;28;20198;-69
2023/07/14 10:11:14;;;;;;;6.43;2.63;;;;;;;;;;4996844;28;20207;-68
2023/07/14 10:13:52;;;;;;;5.93;2.60;;;;;;;;;;4988831;28;20274;-68
2023/07/14 10:16:19;;;;;;;5.10;2.50;;;;;;;;;;5016295;28;20194;-70
2023/07/14 10:19:04;;;;;;;4.32;2.38;;;;;;;;;;4999586;28;20603;-69
2023/07/14 10:21:34;;;;;;;5.85;2.75;;;;;;;;;;5013128;28;20209;-71
2023/07/14 10:24:02;;;;;;;4.15;2.75;;;;;;;;;;5001071;28;20327;-67
2023/07/14 10:26:33;;;;;;;5.32;2.92;;;;;;;;;;4998722;28;20222;-69
2023/07/14 10:28:59;;;;;;;8.25;3.63;;;;;;;;;;5010789;28;20564;-71
2023/07/14 10:31:39;;;;;;;5.40;2.70;;;;;;;;;;5009782;28;20289;-70
2023/07/14 10:34:13;;;;;;;5.78;2.58;;;;;;;;;;5001593;28;20194;-66
2023/07/14 10:36:39;;;;;;;6.43;2.80;;;;;;;;;;5003223;28;20557;-71
2023/07/14 10:39:12;;;;;;;4.85;2.70;;;;;;;;;;4997661;28;20211;-69
2023/07/14 10:41:42;;;;;;;5.82;2.60;;;;;;;;;;4993190;28;20286;-68
2023/07/14 10:44:38;;;;;;;5.85;3.38;;;;;;;;;;4997982;28;20183;-71
2023/07/14 10:47:14;;;;;;;7.25;3.42;;;;;;;;;;4998029;28;20557;-70
2023/07/14 10:49:43;;;;;;;6.03;3.67;;;;;;;;;;5006952;28;20218;-71
2023/07/14 10:52:18;;;;;;;5.28;2.75;;;;;;;;;;4993684;28;20198;-69
2023/07/14 10:54:55;;;;;;;15.80;9.88;;;;;;;;;;4994171;28;20676;-69
2023/07/14 10:57:51;;;;;;;9.18;4.65;;;;;;;;;;4999508;28;20195;-71
2023/07/14 11:00:25;;;;;;;11.45;5.78;;;;;;;;;;5001747;28;20313;-69
2023/07/14 11:03:37;;;;;;;5.68;3.88;;;;;;;;;;4994867;28;20221;-69
2023/07/14 11:06:18;;;;;;;7.10;4.72;;;;;;;;;;4989030;28;20219;-69
2023/07/14 11:08:51;;;;;;;5.63;3.40;;;;;;;;;;4996899;28;20199;-69
2023/07/14 11:11:39;;;;;;;3.65;2.50;;;;;;;;;;5009801;28;20250;-69
2023/07/14 11:14:22;;;;;;;4.75;2.20;;;;;;;;;;4996817;28;20196;-69
2023/07/14 11:17:19;;;;;;;6.90;4.10;;;;;;;;;;5001153;28;20613;-69
2023/07/14 11:20:12;;;;;;;7.95;4.97;;;;;;;;;;4994235;28;20206;-71
2023/07/14 11:22:57;;;;;;;8.25;3.70;;;;;;;;;;5009411;28;20206;-71
2023/07/14 11:25:47;;;;;;;6.60;4.05;;;;;;;;;;5009243;28;20733;-71
2023/07/14 11:28:42;;;;;;;6.60;3.33;;;;;;;;;;5005570;28;20205;-69
2023/07/14 11:31:26;;;;;;;3.13;2.35;;;;;;;;;;5006810;28;20183;-72
2023/07/14 11:34:19;;;;;;;5.85;2.83;;;;;;;;;;5000945;28;20203;-69
2023/07/14 11:37:06;;;;;;;4.68;2.67;;;;;;;;;;5004879;28;20201;-69
2023/07/14 11:39:50;;;;;;;4.97;2.40;;;;;;;;;;5004947;28;20201;-70
2023/07/14 11:42:20;;;;;;;3.67;2.60;;;;;;;;;;5005468;28;20187;-70
2023/07/14 11:44:47;;;;;;;3.97;2.50;;;;;;;;;;5007761;28;20214;-69
2023/07/14 11:47:36;;;;;;;6.40;2.80;;;;;;;;;;4996903;28;20199;-69
2023/07/14 11:50:21;;;;;;;3.60;2.30;;;;;;;;;;5004906;28;20201;-72
2023/07/14 11:53:16;;;;;;;6.47;2.47;;;;;;;;;;5003239;28;20179;-69
2023/07/14 11:55:48;;;;;;;8.32;2.17;;;;;;;;;;4992119;28;20210;-73
2023/07/14 11:58:27;;;;;;;4.15;2.40;;;;;;;;;;5004355;28;20221;-70
2023/07/14 12:01:02;;;;;;;5.22;2.30;;;;;;;;;;4995398;28;20213;-73
2023/07/14 12:03:38;;;;;;;5.75;3.22;;;;;;;;;;5004049;28;20687;-70
2023/07/14 12:06:19;;;;;;;3.88;2.58;;;;;;;;;;5007855;28;20448;-69
2023/07/14 12:09:01;;;;;;;4.70;2.25;;;;;;;;;;4998841;28;20226;-71
2023/07/14 12:11:30;;;;;;;3.20;2.30;;;;;;;;;;5005918;28;20273;-71
2023/07/14 12:13:58;;;;;;;4.63;2.33;;;;;;;;;;5014033;28;20744;-69
2023/07/14 12:16:28;;;;;;;4.70;2.03;;;;;;;;;;5004663;28;20635;-71
2023/07/14 12:18:56;;;;;;;4.35;2.17;;;;;;;;;;5006003;28;20265;-69
2023/07/14 12:21:28;;;;;;;4.63;2.70;;;;;;;;;;5006381;28;20195;-69
2023/07/14 12:23:58;;;;;;;5.07;2.35;;;;;;;;;;4983457;28;20179;-70
2023/07/14 12:26:23;;;;;;;3.80;2.22;;;;;;;;;;5003921;28;20219;-69
2023/07/14 12:28:49;;;;;;;3.65;2.13;;;;;;;;;;5004758;28;20191;-68
2023/07/14 12:31:18;;;;;;;5.90;2.85;;;;;;;;;;5011000;28;20661;-69
2023/07/14 12:33:45;;;;;;;5.55;2.67;;;;;;;;;;5005877;28;20190;-69
2023/07/14 12:36:19;;;;;;;5.43;3.08;;;;;;;;;;5002501;28;20182;-70
2023/07/14 12:38:46;;;;;;;5.28;2.30;;;;;;;;;;5006968;28;20183;-69
2023/07/14 12:41:12;;;;;;;3.95;2.33;;;;;;;;;;5010058;28;20557;-69
2023/07/14 12:43:44;;;;;;;4.70;2.38;;;;;;;;;;5004735;28;20184;-69
2023/07/14 12:46:27;;;;;;;7.28;2.30;;;;;;;;;;5001408;28;20258;-69
2023/07/14 12:49:32;;;;;;;3.88;2.20;;;;;;;;;;5002294;28;20188;-70
2023/07/14 12:52:03;;;;;;;4.88;2.30;;;;;;;;;;5015487;28;20210;-70
2023/07/14 12:54:28;;;;;;;3.80;2.03;;;;;;;;;;5002570;28;20186;-68
2023/07/14 12:56:55;;;;;;;4.40;1.95;;;;;;;;;;4999738;28;20247;-68
2023/07/14 12:59:21;;;;;;;3.97;2.13;;;;;;;;;;4997072;28;20191;-70
2023/07/14 13:01:48;;;;;;;4.63;2.13;;;;;;;;;;5005204;28;20198;-70
2023/07/14 13:04:16;;;;;;;7.53;2.42;;;;;;;;;;5002257;28;20321;-69
2023/07/14 13:06:42;;;;;;;3.42;2.20;;;;;;;;;;5000567;28;20245;-69
2023/07/14 13:09:21;;;;;;;6.55;2.55;;;;;;;;;;5009025;28;20194;-70
2023/07/14 13:11:48;;;;;;;6.35;2.00;;;;;;;;;;5007993;28;20194;-70
2023/07/14 13:14:22;;;;;;;5.50;2.13;;;;;;;;;;4999054;28;20206;-70
2023/07/14 13:16:50;;;;;;;3.50;2.30;;;;;;;;;;5004878;28;20308;-71
2023/07/14 13:19:31;;;;;;;3.67;2.25;;;;;;;;;;5007419;28;20312;-72
2023/07/14 13:21:59;;;;;;;3.35;1.85;;;;;;;;;;5007031;28;20724;-70
2023/07/14 13:24:26;;;;;;;3.22;2.33;;;;;;;;;;4316245;28;10021543;-71
2023/07/14 13:26:56;;;;;;;3.53;2.15;;;;;;;;;;5006310;28;20238;-70
2023/07/14 13:29:25;;;;;;;3.88;2.45;;;;;;;;;;4992983;28;20198;-72
2023/07/14 13:31:59;;;;;;;5.20;2.50;;;;;;;;;;5000820;28;20186;-72
2023/07/14 13:34:30;;;;;;;3.58;2.25;;;;;;;;;;5000061;28;20209;-71
2023/07/14 13:36:56;;;;;;;2.83;2.22;;;;;;;;;;4993552;28;20700;-70
2023/07/14 13:39:34;;;;;;;4.38;3.13;;;;;;;;;;5001627;28;20251;-71
2023/07/14 13:42:02;;;;;;;6.72;2.75;;;;;;;;;;4993930;28;20674;-70
2023/07/14 13:44:45;;;;;;;5.65;2.60;;;;;;;;;;5007939;28;20569;-70
2023/07/14 13:47:19;;;;;;;5.88;2.53;;;;;;;;;;5003394;28;20202;-71
2023/07/14 13:49:50;;;;;;;5.40;2.45;;;;;;;;;;5006341;28;20776;-71
2023/07/14 13:52:26;;;;;;;5.47;2.85;;;;;;;;;;5004758;28;20198;-70
2023/07/14 13:54:54;;;;;;;4.70;2.80;;;;;;;;;;5001172;28;20198;-70
2023/07/14 13:57:20;;;;;;;3.97;2.78;;;;;;;;;;5000259;28;20273;-69
2023/07/14 13:59:46;;;;;;;4.97;2.50;;;;;;;;;;5006604;28;20592;-70
2023/07/14 14:02:36;;;;;;;5.78;2.80;;;;;;;;;;5006653;28;20556;-70
2023/07/14 14:05:03;;;;;;;4.22;2.33;;;;;;;;;;5007252;28;20271;-72
2023/07/14 14:07:30;;;;;;;4.53;2.97;;;;;;;;;;5004673;28;20194;-71
2023/07/14 14:09:55;;;;;;;9.10;2.60;;;;;;;;;;5003521;28;20203;-71
2023/07/14 14:12:21;;;;;;;4.60;2.80;;;;;;;;;;5006603;28;20203;-69
2023/07/14 14:14:47;;;;;;;4.82;3.10;;;;;;;;;;5009630;28;20644;-70
2023/07/14 14:17:23;;;;;;;5.32;2.55;;;;;;;;;;5010979;28;20211;-69
2023/07/14 14:19:49;;;;;;;6.35;2.80;;;;;;;;;;5009473;28;20227;-70
2023/07/14 14:22:15;;;;;;;5.45;2.47;;;;;;;;;;5009684;28;20213;-71
2023/07/14 14:24:40;;;;;;;4.97;3.45;;;;;;;;;;5010529;28;20210;-69
2023/07/14 14:27:07;;;;;;;6.53;3.03;;;;;;;;;;5010758;28;20246;-70
2023/07/14 14:29:32;;;;;;;4.93;3.00;;;;;;;;;;5010446;28;20263;-68
2023/07/14 14:32:00;;;;;;;3.97;2.47;;;;;;;;;;4999790;28;20741;-69
2023/07/14 14:34:28;;;;;;;2.67;2.38;;;;;;;;;;5007332;28;20638;-69
2023/07/14 14:36:54;;;;;;;6.57;2.00;;;;;;;;;;4995921;28;20277;-70
2023/07/14 14:39:21;;;;;;;5.75;2.40;;;;;;;;;;5008318;28;20560;-70
2023/07/14 14:41:47;;;;;;;5.05;2.40;;;;;;;;;;5008390;28;20210;-68
2023/07/14 14:44:22;;;;;;;4.47;2.47;;;;;;;;;;5009498;28;20194;-69
2023/07/14 14:46:48;;;;;;;4.50;2.63;;;;;;;;;;5005371;28;20208;-70